Domov               UVHVVR             MKGP            O straneh              
ZDRAVSTVENO VARSTVO RASTLIN
  MREŽA AGROMET. POSTAJ
 ► PROGNOSTIČNA OBVESTILA
AGROMETEOROLOŠKI PODATKI -
ARSO
OBVLADOVANJE TVEGANJ ZARADI
NEUGODNIH VREMENSKIH RAZMER
  ► NARAVNE NESREČE
  ► SUŠA/MOČA
  ► NAMAKANJE
  ► ŽLED (gozdarstvo)
KARTOGRAFSKI PRIKAZI
SPLETNE POVEZAVE
PROJEKTI IN PUBLIKACIJE

AGROMETEOROLOŠKA MREŽA: VREMENSKE POSTAJE IN FENOLOŠKA OPAZOVANJA

Pregled podatkov za lokacijo Maribor - BTŠ, meteorološka postaja 35810

Pregled senzorjev na lokaciji

ID Ime Zadnja
vrednost
Datum
zadnje
spremembe
Tip
senzorja
4297 Omočenost lista (U) 0 U 26.3.2019 18:30 A730WET
1723 Padavine (mm) 0 mm 26.3.2019 18:29 Generic 0.2 mm
1722 Relativna vlaga 2 m (% RH) 37,97 % RH 26.3.2019 18:29 Generic 0 - 100 %
1721 Temperatura 2 m (°C) 10,35 °C 26.3.2019 18:30 Generic -40 - +60 °C
4296 Smer vetra (°) 113,05 ° 26.3.2019 18:29 Generic 0 - 360
4295 Hitrost vetra (km/h) 1,64 km/h 26.3.2019 18:29 Generic 100 km/h

Pregled podatkov zadnjih 24 ur

Zap.
št.
Datum in čas Maribor - BTŠ
Omočenost
lista
Padavine Relativna
vlaga
2
m
Temperatura
2
m
Smer
vetra
Hitrost
vetra
1 26.3.2019 17:30 0 0 38 10,4 113,1 1,6
2 26.3.2019 17:00 0 0 35,5 10,9 145,6 1,1
3 26.3.2019 16:30 0 0 35,1 11,2 21,1 2,6
4 26.3.2019 16:00 0 0 34,5 11,4 122,9 1,8
5 26.3.2019 15:30 0 0 35 11,5 90 2,4
6 26.3.2019 15:00 0 0 33,4 12,7 42,4 2,8
7 26.3.2019 14:30 0 0 34,7 12,4 358,2 3
8 26.3.2019 14:00 0 0 37,5 11,7 109,6 3,1
9 26.3.2019 13:30 0 0 37,6 11,1 121,1 2,8
10 26.3.2019 13:00 0 0 38,9 11,6 77,1 3,7
11 26.3.2019 12:30 0 0 42,4 10,5 89,1 3
12 26.3.2019 12:00 0 0 44,6 9,8 229,1 3,3
13 26.3.2019 11:30 0 0 46,2 9,1 268,1 3,4
14 26.3.2019 11:00 0 0 46,4 9,9 281,8 3,1
15 26.3.2019 10:30 0 0 49,9 9,1 249,5 3,8
16 26.3.2019 10:00 0 0 51,8 9,1 35,5 3,7
17 26.3.2019 09:30 0 0 54 8,2 240,2 5,5
18 26.3.2019 09:00 0 0 56 7,7 236 4,4
19 26.3.2019 08:30 0 0 58,2 6,9 270 5,2
20 26.3.2019 08:00 0 0 72,6 5,4 271 3,4
21 26.3.2019 07:30 0 0 81,1 3,8 257,1 2,4
22 26.3.2019 07:00 0 0 81,8 3,3 288,5 3
23 26.3.2019 06:30 0 0 81 3,2 269,4 3,5
24 26.3.2019 06:00 0 0 81,6 3,1 285,1 3,1
25 26.3.2019 05:30 0 0 80,2 3,4 243,9 2,3
26 26.3.2019 05:00 0 0 79,2 3,7 266,8 2,6
27 26.3.2019 04:30 0 0 79,4 3,8 291,3 2,7
28 26.3.2019 04:00 0 0 80,9 3,8 295,4 2,5
29 26.3.2019 03:30 0 0 80,7 3,7 283 2,2
30 26.3.2019 03:00 0 0 84,6 3,5 264,6 2
31 26.3.2019 02:30 1 0 86,9 3,6 279,2 2,5
32 26.3.2019 02:00 1 0 91,6 3,5 272,3 1,8
33 26.3.2019 01:30 1 0 90,7 3,8 279 3,3
34 26.3.2019 01:00 1 0 90,3 3,9 276,2 3,5
35 26.3.2019 00:30 1 0 90,2 3,9 265,1 4,2
36 26.3.2019 00:00 1 0 90,8 3,9 291,3 4,3
37 25.3.2019 23:30 1 0,2 90,6 3,8 266,6 2,9
38 25.3.2019 23:00 0 0 87,5 4,1 247,1 1,9
39 25.3.2019 22:30 2 0 89,2 3,9 303,7 3,6
40 25.3.2019 22:00 3 0 90,6 4 264,2 4,6
41 25.3.2019 21:30 7 0 90,9 4,3 289,4 3,6
42 25.3.2019 21:00 4 0,2 90 4,6 261,3 2,2
43 25.3.2019 20:30 4 1,2 87,4 4,8 225,6 1,2
44 25.3.2019 20:00 9 1,2 80,1 5,6 134,6 4,2
45 25.3.2019 19:30 8 0 83,2 6,2 276,1 4,3
46 25.3.2019 19:00 3 0 86,6 6,1 265,8 3,8
47 25.3.2019 18:30 6 0,2 86,4 6,3 222 2,3
48 25.3.2019 18:00 6 1,2 87,6 6,4 295,7 3,3
© 2011 Ministrstvo za kmetijstvo, gozdarstvo in prehrano. Vse pravice pridržane.